Time;durP1;ratioP1;P1;durP2;ratioP2;P2;SDS_P1;SDS_P2;PMS_P1;PMS_P2;Temp;Humidity;BMP_temperature;BMP_pressure;BME280_temperature;BME280_humidity;BME280_pressure;Samples;Min_cycle;Max_cycle;Signal;HPM_P1;HPM_P2
2020/12/23 00:00:53;;;;;;;15.77;10.98;;;12.90;99.90;;;;;;2112052;28;20128;-77
2020/12/23 00:02:00;;;;;;;15.18;10.68;;;12.90;99.90;;;;;;2121600;27;20076;-77
2020/12/23 00:03:01;;;;;;;14.13;10.02;;;12.90;99.90;;;;;;2111809;28;20032;-77
2020/12/23 00:04:01;;;;;;;17.15;10.85;;;12.90;99.90;;;;;;2112506;28;20031;-77
2020/12/23 00:05:06;;;;;;;12.55;9.90;;;12.90;99.90;;;;;;2112388;28;20107;-77
2020/12/23 00:06:07;;;;;;;17.17;11.07;;;12.90;99.90;;;;;;2113239;28;20024;-77
2020/12/23 00:07:11;;;;;;;15.90;11.40;;;12.90;99.90;;;;;;2121370;28;20022;-77
2020/12/23 00:08:11;;;;;;;14.52;10.90;;;12.90;99.90;;;;;;2112291;28;20103;-79
2020/12/23 00:09:12;;;;;;;16.88;11.27;;;12.80;99.90;;;;;;2103952;28;20027;-78
2020/12/23 00:10:12;;;;;;;16.30;11.75;;;12.80;99.90;;;;;;2112231;28;20546;-78
2020/12/23 00:11:16;;;;;;;18.70;12.70;;;12.80;99.90;;;;;;2121579;28;20358;-79
2020/12/23 00:12:16;;;;;;;13.55;11.10;;;12.90;99.90;;;;;;2121199;28;20023;-77
2020/12/23 00:13:18;;;;;;;18.20;12.18;;;12.80;99.90;;;;;;2121045;28;20422;-77
2020/12/23 00:14:19;;;;;;;16.40;11.77;;;12.80;99.90;;;;;;2121278;28;20020;-80
2020/12/23 00:15:20;;;;;;;14.45;12.85;;;12.80;99.90;;;;;;2112334;28;20052;-78
2020/12/23 00:16:22;;;;;;;19.48;12.20;;;12.80;99.90;;;;;;2112596;28;20069;-77
2020/12/23 00:17:22;;;;;;;16.27;13.77;;;12.80;99.90;;;;;;2121280;28;20022;-77
2020/12/23 00:18:24;;;;;;;16.30;13.48;;;12.80;99.90;;;;;;2121311;28;20041;-77
2020/12/23 00:19:24;;;;;;;20.63;14.80;;;12.80;99.90;;;;;;2120923;28;20016;-78
2020/12/23 00:20:25;;;;;;;17.65;14.05;;;12.80;99.90;;;;;;2121412;28;20023;-77
2020/12/23 00:21:25;;;;;;;18.05;13.75;;;12.70;99.90;;;;;;2121353;28;20023;-78
2020/12/23 00:22:26;;;;;;;20.30;14.40;;;12.70;99.90;;;;;;2121588;28;20038;-76
2020/12/23 00:23:26;;;;;;;18.98;14.05;;;12.70;99.90;;;;;;2120978;28;20027;-78
2020/12/23 00:24:27;;;;;;;19.52;15.32;;;12.70;99.90;;;;;;2121449;28;20027;-76
2020/12/23 00:25:28;;;;;;;17.23;14.95;;;12.70;99.90;;;;;;2121268;28;20054;-78
2020/12/23 00:26:28;;;;;;;23.00;14.70;;;12.70;99.90;;;;;;2120845;28;20051;-77
2020/12/23 00:27:29;;;;;;;18.58;14.75;;;12.70;99.90;;;;;;2112365;28;20019;-77
2020/12/23 00:28:29;;;;;;;19.00;14.48;;;12.70;99.90;;;;;;2113271;28;20468;-76
2020/12/23 00:29:30;;;;;;;23.25;15.48;;;12.80;99.90;;;;;;2123279;27;20054;-76
2020/12/23 00:30:31;;;;;;;18.77;15.20;;;12.80;99.90;;;;;;2114082;28;20107;-76
2020/12/23 00:31:31;;;;;;;22.50;16.05;;;12.80;99.90;;;;;;2113953;28;20417;-77
2020/12/23 00:32:32;;;;;;;18.80;15.10;;;12.80;99.90;;;;;;2123125;27;20479;-78
2020/12/23 00:33:32;;;;;;;16.45;13.95;;;12.80;99.90;;;;;;2122768;27;20463;-78
2020/12/23 00:34:33;;;;;;;19.63;14.10;;;12.80;99.90;;;;;;2122658;27;20030;-77
2020/12/23 00:35:34;;;;;;;17.10;14.57;;;12.80;99.90;;;;;;2123249;27;20019;-79
2020/12/23 00:36:34;;;;;;;19.08;14.88;;;12.80;99.90;;;;;;2123052;27;20022;-77
2020/12/23 00:37:35;;;;;;;20.95;14.68;;;12.80;99.90;;;;;;2122838;27;20020;-78
2020/12/23 00:38:35;;;;;;;18.88;14.18;;;12.80;99.90;;;;;;2123131;27;20019;-78
2020/12/23 00:39:36;;;;;;;18.98;14.40;;;12.90;99.90;;;;;;2122821;27;20035;-77
2020/12/23 00:40:36;;;;;;;16.08;13.55;;;12.80;99.90;;;;;;2114150;28;20024;-76
2020/12/23 00:41:37;;;;;;;18.60;15.23;;;12.90;99.90;;;;;;2113610;28;20050;-76
2020/12/23 00:42:38;;;;;;;19.27;14.90;;;12.90;99.90;;;;;;2122995;27;20057;-77
2020/12/23 00:43:38;;;;;;;21.55;14.52;;;12.90;99.90;;;;;;2122579;27;20100;-77
2020/12/23 00:44:39;;;;;;;19.88;14.27;;;12.90;99.90;;;;;;2113349;28;20019;-76
2020/12/23 00:45:39;;;;;;;19.20;14.45;;;12.90;99.90;;;;;;2114320;28;20483;-79
2020/12/23 00:46:40;;;;;;;19.08;14.68;;;12.90;99.90;;;;;;2123169;27;20680;-77
2020/12/23 00:47:41;;;;;;;17.38;14.25;;;12.90;99.90;;;;;;2122874;27;20031;-76
2020/12/23 00:48:42;;;;;;;18.15;14.85;;;12.90;99.90;;;;;;2122866;27;20058;-78
2020/12/23 00:49:43;;;;;;;19.40;15.15;;;12.90;99.90;;;;;;2113562;28;20105;-76
2020/12/23 00:50:44;;;;;;;16.65;13.68;;;12.90;99.90;;;;;;2113644;28;20023;-79
2020/12/23 00:51:44;;;;;;;19.95;14.32;;;12.90;99.90;;;;;;2114025;28;20422;-76
2020/12/23 00:52:45;;;;;;;19.73;14.82;;;12.90;99.90;;;;;;2114157;28;20016;-79
2020/12/23 00:53:45;;;;;;;18.52;14.20;;;12.90;99.90;;;;;;2122481;27;20048;-78
2020/12/23 00:54:46;;;;;;;20.55;14.63;;;12.90;99.90;;;;;;2113621;28;20023;-79
2020/12/23 00:55:47;;;;;;;20.70;14.80;;;13.00;99.90;;;;;;2113829;28;20103;-78
2020/12/23 00:56:47;;;;;;;17.65;14.40;;;13.00;99.90;;;;;;2114034;28;20512;-78
2020/12/23 00:57:48;;;;;;;16.13;14.38;;;12.90;99.90;;;;;;2122983;27;20031;-76
2020/12/23 00:58:48;;;;;;;19.88;15.15;;;13.00;99.90;;;;;;2122384;27;20422;-77
2020/12/23 00:59:49;;;;;;;18.45;14.25;;;13.00;99.90;;;;;;2122730;27;20027;-76
2020/12/23 01:00:49;;;;;;;20.77;15.05;;;13.00;99.90;;;;;;2122887;27;20473;-78
2020/12/23 01:01:56;;;;;;;17.55;14.85;;;13.00;99.90;;;;;;2113991;28;20088;-78
2020/12/23 01:02:57;;;;;;;21.38;15.57;;;13.00;99.90;;;;;;2106213;28;20024;-78
2020/12/23 01:03:57;;;;;;;17.75;14.75;;;13.00;99.90;;;;;;2113718;28;20024;-76
2020/12/23 01:04:58;;;;;;;20.38;15.38;;;13.00;99.90;;;;;;2123214;27;20098;-76
2020/12/23 01:05:59;;;;;;;17.60;14.30;;;13.00;99.90;;;;;;2122798;27;20019;-78
2020/12/23 01:06:59;;;;;;;19.20;15.02;;;13.00;99.90;;;;;;2122425;27;20029;-78
2020/12/23 01:08:00;;;;;;;21.60;16.92;;;13.00;99.90;;;;;;2122707;27;20026;-76
2020/12/23 01:09:00;;;;;;;21.75;15.73;;;13.00;99.90;;;;;;2113665;28;20019;-76
2020/12/23 01:10:01;;;;;;;23.08;15.65;;;13.00;99.90;;;;;;2113753;28;20038;-77
2020/12/23 01:11:05;;;;;;;18.98;15.50;;;13.00;99.90;;;;;;2122871;27;20024;-78
2020/12/23 01:12:05;;;;;;;20.17;15.75;;;13.10;99.90;;;;;;2122499;27;20016;-77
2020/12/23 01:13:06;;;;;;;22.73;15.63;;;13.10;99.90;;;;;;2113533;28;20042;-77
2020/12/23 01:14:06;;;;;;;20.77;16.13;;;13.10;99.90;;;;;;2113640;28;20492;-78
2020/12/23 01:15:07;;;;;;;23.80;18.23;;;13.10;99.90;;;;;;2123001;27;20027;-78
2020/12/23 01:16:08;;;;;;;21.85;16.90;;;13.10;99.90;;;;;;2123065;27;20023;-77
2020/12/23 01:17:11;;;;;;;21.88;16.38;;;13.10;99.90;;;;;;2122787;27;20080;-76
2020/12/23 01:18:11;;;;;;;21.20;16.55;;;13.10;99.90;;;;;;2122619;27;20043;-79
2020/12/23 01:19:13;;;;;;;21.30;17.08;;;13.10;99.90;;;;;;2113585;28;20364;-78
2020/12/23 01:20:13;;;;;;;20.55;17.13;;;13.10;99.90;;;;;;2105066;28;20045;-76
2020/12/23 01:21:14;;;;;;;23.27;17.17;;;13.10;99.90;;;;;;2113441;28;20656;-77
2020/12/23 01:22:15;;;;;;;22.10;17.35;;;13.10;99.90;;;;;;2113720;28;20511;-78
2020/12/23 01:23:15;;;;;;;22.38;17.23;;;13.10;99.90;;;;;;2113130;28;20027;-78
2020/12/23 01:24:16;;;;;;;22.65;16.17;;;13.10;99.90;;;;;;2113431;28;20039;-78
2020/12/23 01:25:16;;;;;;;18.85;15.05;;;13.10;99.90;;;;;;2105389;28;20519;-78
2020/12/23 01:26:17;;;;;;;20.50;16.27;;;13.10;99.90;;;;;;2113491;28;20457;-77
2020/12/23 01:27:18;;;;;;;22.23;16.77;;;13.10;99.90;;;;;;2113577;28;20015;-76
2020/12/23 01:28:18;;;;;;;24.85;17.75;;;13.10;99.90;;;;;;2113737;28;20023;-76
2020/12/23 01:29:19;;;;;;;20.70;16.85;;;13.10;99.90;;;;;;2113530;28;20103;-76
2020/12/23 01:30:20;;;;;;;20.75;17.27;;;13.20;99.90;;;;;;2113412;28;20422;-77
2020/12/23 01:31:20;;;;;;;24.05;18.73;;;13.20;99.90;;;;;;2122732;27;20090;-78
2020/12/23 01:32:21;;;;;;;24.80;17.55;;;13.20;99.90;;;;;;2122563;27;20020;-78
2020/12/23 01:33:21;;;;;;;25.52;18.98;;;13.20;99.90;;;;;;2122072;27;20031;-76
2020/12/23 01:34:22;;;;;;;24.73;17.50;;;13.20;99.90;;;;;;2122692;27;20019;-78
2020/12/23 01:35:22;;;;;;;25.92;18.05;;;13.20;99.90;;;;;;2122608;27;20066;-77
2020/12/23 01:36:23;;;;;;;25.35;18.15;;;13.20;99.90;;;;;;2113589;28;20115;-79
2020/12/23 01:37:23;;;;;;;22.60;17.17;;;13.20;99.90;;;;;;2113429;28;20027;-77
2020/12/23 01:38:24;;;;;;;24.15;17.45;;;13.20;99.90;;;;;;2122584;27;20580;-77
2020/12/23 01:39:24;;;;;;;24.23;18.38;;;13.20;99.90;;;;;;2122406;27;20023;-78
2020/12/23 01:40:25;;;;;;;21.42;17.00;;;13.20;99.90;;;;;;2121612;27;20054;-77
2020/12/23 01:41:26;;;;;;;23.05;17.67;;;13.20;99.90;;;;;;2113526;28;20495;-76
2020/12/23 01:42:27;;;;;;;24.42;17.80;;;13.20;99.90;;;;;;2113522;28;20625;-77
2020/12/23 01:43:27;;;;;;;22.48;17.85;;;13.20;99.90;;;;;;2122026;27;20386;-77
2020/12/23 01:44:28;;;;;;;25.90;18.02;;;13.20;99.90;;;;;;2113456;28;20016;-77
2020/12/23 01:45:28;;;;;;;25.67;17.48;;;13.20;99.90;;;;;;2113584;28;20023;-77
2020/12/23 01:46:36;;;;;;;24.83;17.80;;;13.20;99.90;;;;;;2122431;27;20019;-77
2020/12/23 01:47:39;;;;;;;26.17;17.85;;;13.20;99.90;;;;;;2113456;28;20114;-77
2020/12/23 01:48:39;;;;;;;23.75;16.77;;;13.20;99.90;;;;;;2113891;27;20039;-78
2020/12/23 01:49:40;;;;;;;26.67;17.17;;;13.30;99.90;;;;;;2122543;27;20019;-78
2020/12/23 01:50:41;;;;;;;22.80;16.80;;;13.30;99.90;;;;;;2122595;27;20035;-79
2020/12/23 01:51:42;;;;;;;22.58;17.23;;;13.30;99.90;;;;;;2122423;27;20042;-77
2020/12/23 01:52:43;;;;;;;20.85;15.85;;;13.30;99.90;;;;;;2122484;27;20015;-77
2020/12/23 01:53:44;;;;;;;21.45;16.85;;;13.30;99.90;;;;;;2122038;27;20031;-79
2020/12/23 01:54:46;;;;;;;23.27;17.00;;;13.30;99.90;;;;;;2122434;27;20019;-77
2020/12/23 01:55:47;;;;;;;22.35;17.40;;;13.30;99.90;;;;;;2122481;27;20026;-77
2020/12/23 01:56:48;;;;;;;27.70;18.38;;;13.30;99.90;;;;;;2122682;27;20019;-76
2020/12/23 01:57:48;;;;;;;25.38;18.27;;;13.30;99.90;;;;;;2122325;27;20438;-76
2020/12/23 01:58:49;;;;;;;26.55;18.10;;;13.30;99.90;;;;;;2122546;27;20459;-77
2020/12/23 01:59:50;;;;;;;26.25;18.83;;;13.30;99.90;;;;;;2122412;27;20023;-76
2020/12/23 02:00:50;;;;;;;24.27;16.63;;;13.30;99.90;;;;;;2113055;28;20503;-78
2020/12/23 02:02:07;;;;;;;20.60;16.25;;;13.40;99.90;;;;;;2113471;28;20019;-76
2020/12/23 02:03:09;;;;;;;23.08;16.77;;;13.40;99.90;;;;;;2112734;28;20020;-78
2020/12/23 02:04:10;;;;;;;21.75;17.33;;;13.40;99.90;;;;;;2113242;28;20019;-75
2020/12/23 02:05:11;;;;;;;24.33;16.65;;;13.40;99.90;;;;;;2113289;28;20024;-77
2020/12/23 02:06:11;;;;;;;23.23;17.30;;;13.40;99.90;;;;;;2113396;28;20094;-77
2020/12/23 02:07:12;;;;;;;22.05;17.50;;;13.40;99.90;;;;;;2122595;27;20459;-76
2020/12/23 02:08:13;;;;;;;21.77;16.48;;;13.40;99.90;;;;;;2122113;27;20459;-79
2020/12/23 02:09:15;;;;;;;23.00;17.05;;;13.40;99.90;;;;;;2122346;27;20015;-78
2020/12/23 02:10:16;;;;;;;22.65;17.75;;;13.40;99.90;;;;;;2104155;28;20024;-77
2020/12/23 02:11:18;;;;;;;24.50;16.95;;;13.40;99.90;;;;;;2105241;28;20020;-77
2020/12/23 02:12:19;;;;;;;21.95;17.10;;;13.40;99.90;;;;;;2122580;27;20056;-78
2020/12/23 02:13:40;;;;;;;22.15;17.05;;;13.40;99.90;;;;;;2122062;27;20031;-77
2020/12/23 02:14:40;;;;;;;21.08;16.88;;;13.40;99.90;;;;;;2122078;27;20020;-79
2020/12/23 02:15:42;;;;;;;26.98;18.08;;;13.40;99.90;;;;;;2113190;28;20110;-78
2020/12/23 02:16:43;;;;;;;19.60;16.98;;;13.40;99.90;;;;;;2113502;27;20043;-77
2020/12/23 02:17:43;;;;;;;19.92;15.77;;;13.40;99.90;;;;;;2122332;27;20609;-78
2020/12/23 02:18:44;;;;;;;21.38;16.25;;;13.40;99.90;;;;;;2122295;27;20023;-75
2020/12/23 02:19:51;;;;;;;26.60;17.85;;;13.40;99.90;;;;;;2109275;28;20023;-76
2020/12/23 02:20:51;;;;;;;25.98;17.00;;;13.40;99.90;;;;;;2105370;28;20031;-76
2020/12/23 02:21:53;;;;;;;22.95;16.40;;;13.40;99.90;;;;;;2113253;28;20028;-77
2020/12/23 02:22:53;;;;;;;23.40;16.08;;;13.40;99.90;;;;;;2122495;27;20028;-77
2020/12/23 02:23:54;;;;;;;21.85;15.98;;;13.40;99.90;;;;;;2121802;27;20038;-77
2020/12/23 02:24:55;;;;;;;19.50;15.38;;;13.40;99.90;;;;;;2122360;27;20064;-77
2020/12/23 02:25:56;;;;;;;24.08;16.58;;;13.50;99.90;;;;;;2122078;27;20363;-78
2020/12/23 02:26:56;;;;;;;23.23;16.20;;;13.50;99.90;;;;;;2121852;27;20573;-77
2020/12/23 02:27:57;;;;;;;24.48;16.60;;;13.40;99.90;;;;;;2104645;28;20017;-79
2020/12/23 02:28:58;;;;;;;22.45;16.25;;;13.50;99.90;;;;;;2105036;28;20020;-77
2020/12/23 02:29:59;;;;;;;22.13;15.77;;;13.50;99.90;;;;;;2122194;27;20577;-77
2020/12/23 02:31:02;;;;;;;23.98;16.17;;;13.50;99.90;;;;;;2122343;27;20634;-76
2020/12/23 02:32:03;;;;;;;19.17;15.32;;;13.50;99.90;;;;;;2121879;27;20023;-77
2020/12/23 02:33:04;;;;;;;20.90;15.18;;;13.50;99.90;;;;;;2112578;28;20038;-78
2020/12/23 02:34:04;;;;;;;20.58;14.73;;;13.50;99.90;;;;;;2113179;28;20486;-78
2020/12/23 02:35:07;;;;;;;20.80;14.27;;;13.50;99.90;;;;;;2122311;27;20027;-78
2020/12/23 02:36:08;;;;;;;20.13;14.10;;;13.50;99.90;;;;;;2113100;28;20023;-78
2020/12/23 02:37:10;;;;;;;15.70;13.25;;;13.50;99.90;;;;;;2113173;28;20150;-77
2020/12/23 02:38:10;;;;;;;20.45;14.70;;;13.50;99.90;;;;;;2121854;27;20019;-78
2020/12/23 02:39:11;;;;;;;18.52;13.30;;;13.50;99.90;;;;;;2113225;28;20446;-77
2020/12/23 02:40:11;;;;;;;23.80;13.65;;;13.50;99.90;;;;;;2104496;28;20404;-77
2020/12/23 02:41:12;;;;;;;19.85;13.68;;;13.50;99.90;;;;;;2112957;28;20456;-76
2020/12/23 02:42:12;;;;;;;20.73;14.70;;;13.40;99.90;;;;;;2113413;28;20528;-78
2020/12/23 02:43:13;;;;;;;23.70;14.07;;;13.50;99.90;;;;;;2112749;28;20491;-79
2020/12/23 02:44:13;;;;;;;18.98;12.90;;;13.50;99.90;;;;;;2104198;28;20166;-79
2020/12/23 02:45:15;;;;;;;17.50;12.43;;;13.50;99.90;;;;;;2112897;28;20012;-77
2020/12/23 02:46:15;;;;;;;21.38;13.57;;;13.50;99.90;;;;;;2122299;27;20015;-78
2020/12/23 02:47:17;;;;;;;20.10;13.65;;;13.50;99.90;;;;;;2122161;27;20058;-75
2020/12/23 02:48:18;;;;;;;21.92;13.50;;;13.50;99.90;;;;;;2122193;27;20020;-78
2020/12/23 02:49:19;;;;;;;18.88;13.27;;;13.50;99.90;;;;;;2122099;27;20074;-78
2020/12/23 02:50:19;;;;;;;17.45;13.68;;;13.50;99.90;;;;;;2121966;27;20383;-78
2020/12/23 02:51:20;;;;;;;21.45;13.43;;;13.50;99.90;;;;;;2121439;27;20019;-77
2020/12/23 02:52:20;;;;;;;21.67;14.48;;;13.50;99.90;;;;;;2121538;27;20063;-78
2020/12/23 02:53:21;;;;;;;17.33;13.68;;;13.50;99.90;;;;;;2121663;27;20030;-79
2020/12/23 02:54:22;;;;;;;21.30;13.38;;;13.50;99.90;;;;;;2122181;27;20053;-78
2020/12/23 02:55:23;;;;;;;20.75;13.93;;;13.50;99.90;;;;;;2121862;27;20102;-76
2020/12/23 02:56:23;;;;;;;16.75;13.52;;;13.60;99.90;;;;;;2121949;27;20049;-77
2020/12/23 02:57:24;;;;;;;26.92;13.50;;;13.60;99.90;;;;;;2121753;27;20015;-77
2020/12/23 02:58:24;;;;;;;18.00;14.90;;;13.60;99.90;;;;;;2121961;27;20019;-77
2020/12/23 02:59:25;;;;;;;20.48;14.93;;;13.60;99.90;;;;;;2112853;28;20049;-77
2020/12/23 03:00:26;;;;;;;24.33;15.55;;;13.50;99.90;;;;;;2112502;28;20031;-76
2020/12/23 03:01:26;;;;;;;17.85;14.32;;;13.50;99.90;;;;;;2113678;28;20023;-78
2020/12/23 03:02:27;;;;;;;20.15;14.88;;;13.50;99.90;;;;;;2122661;27;20029;-78
2020/12/23 03:03:27;;;;;;;20.73;15.52;;;13.50;99.90;;;;;;2113187;28;20578;-75
2020/12/23 03:04:28;;;;;;;21.58;14.60;;;13.50;99.90;;;;;;2113890;28;20046;-77
2020/12/23 03:05:28;;;;;;;21.40;16.23;;;13.50;99.90;;;;;;2113602;28;20490;-77
2020/12/23 03:06:29;;;;;;;20.15;15.23;;;13.50;99.90;;;;;;2113745;28;20023;-77
2020/12/23 03:07:30;;;;;;;22.88;15.23;;;13.50;99.90;;;;;;2113285;28;20028;-80
2020/12/23 03:08:30;;;;;;;21.73;14.57;;;13.50;99.90;;;;;;2113748;28;20432;-77
2020/12/23 03:09:31;;;;;;;25.23;15.20;;;13.50;99.90;;;;;;2113394;28;20020;-76
2020/12/23 03:10:31;;;;;;;21.08;15.38;;;13.50;99.90;;;;;;2113516;28;20051;-76
2020/12/23 03:11:32;;;;;;;21.40;15.27;;;13.50;99.90;;;;;;2122740;27;20023;-77
2020/12/23 03:12:33;;;;;;;18.63;15.52;;;13.50;99.90;;;;;;2113284;28;20031;-76
2020/12/23 03:13:33;;;;;;;22.13;15.70;;;13.50;99.90;;;;;;2113389;28;20524;-77
2020/12/23 03:14:34;;;;;;;23.33;15.80;;;13.50;99.90;;;;;;2122777;27;20062;-77
2020/12/23 03:15:34;;;;;;;21.23;15.57;;;13.50;99.90;;;;;;2122710;27;20034;-77
2020/12/23 03:16:35;;;;;;;23.33;15.55;;;13.50;99.90;;;;;;2122261;27;20054;-78
2020/12/23 03:17:36;;;;;;;22.10;16.05;;;13.50;99.90;;;;;;2122681;27;20026;-79
2020/12/23 03:18:39;;;;;;;23.42;15.90;;;13.50;99.90;;;;;;2122552;27;20047;-77
2020/12/23 03:19:39;;;;;;;24.20;16.00;;;13.50;99.90;;;;;;2113611;28;20019;-76
2020/12/23 03:20:40;;;;;;;20.00;16.08;;;13.50;99.90;;;;;;2105003;28;20379;-79
2020/12/23 03:21:40;;;;;;;22.88;15.38;;;13.50;99.90;;;;;;2113574;28;20022;-76
2020/12/23 03:22:41;;;;;;;19.10;15.15;;;13.50;99.90;;;;;;2122409;27;20076;-78
2020/12/23 03:23:42;;;;;;;24.83;15.75;;;13.50;99.90;;;;;;2122025;27;20063;-77
2020/12/23 03:24:42;;;;;;;25.35;15.32;;;13.50;99.90;;;;;;2122574;27;20027;-78
2020/12/23 03:25:43;;;;;;;21.55;15.95;;;13.60;99.90;;;;;;2122588;27;20019;-78
2020/12/23 03:26:43;;;;;;;25.20;17.42;;;13.60;99.90;;;;;;2122525;27;20019;-78
2020/12/23 03:27:44;;;;;;;20.25;16.20;;;13.60;99.90;;;;;;2122738;27;20026;-78
2020/12/23 03:28:44;;;;;;;22.10;15.90;;;13.60;99.90;;;;;;2122583;27;20024;-78
2020/12/23 03:29:45;;;;;;;21.17;15.65;;;13.60;99.90;;;;;;2122406;27;20524;-77
2020/12/23 03:30:46;;;;;;;22.35;15.90;;;13.60;99.90;;;;;;2113175;28;20015;-77
2020/12/23 03:31:46;;;;;;;19.23;14.88;;;13.50;99.90;;;;;;2113761;28;20026;-77
2020/12/23 03:32:47;;;;;;;21.77;16.42;;;13.50;99.90;;;;;;2122060;27;20384;-79
2020/12/23 03:33:47;;;;;;;18.70;14.65;;;13.60;99.90;;;;;;2122387;27;20073;-77
2020/12/23 03:34:48;;;;;;;20.80;15.82;;;13.60;99.90;;;;;;2122456;27;20385;-78
2020/12/23 03:35:49;;;;;;;20.67;15.70;;;13.60;99.90;;;;;;2122502;27;20027;-78
2020/12/23 03:36:49;;;;;;;17.23;13.90;;;13.60;99.90;;;;;;2122414;27;20463;-78
2020/12/23 03:37:50;;;;;;;19.45;14.88;;;13.60;99.90;;;;;;2121787;27;20360;-77
2020/12/23 03:38:50;;;;;;;20.92;15.95;;;13.60;99.90;;;;;;2122186;27;20038;-78
2020/12/23 03:39:51;;;;;;;19.45;15.30;;;13.60;99.90;;;;;;2122294;27;20050;-76
2020/12/23 03:40:53;;;;;;;19.70;15.20;;;13.60;99.90;;;;;;2112766;28;20490;-78
2020/12/23 03:41:53;;;;;;;20.02;16.02;;;13.60;99.90;;;;;;2113248;28;20480;-76
2020/12/23 03:42:54;;;;;;;16.92;13.52;;;13.60;99.90;;;;;;2122302;27;20027;-78
2020/12/23 03:43:54;;;;;;;21.45;15.48;;;13.60;99.90;;;;;;2121779;27;20023;-78
2020/12/23 03:44:55;;;;;;;19.88;15.57;;;13.60;99.90;;;;;;2122533;27;20387;-78
2020/12/23 03:45:55;;;;;;;21.83;15.38;;;13.60;99.90;;;;;;2122236;27;20020;-76
2020/12/23 03:46:56;;;;;;;19.00;15.13;;;13.60;99.90;;;;;;2122391;27;20659;-78
2020/12/23 03:47:57;;;;;;;18.42;14.85;;;13.60;99.90;;;;;;2122351;27;20037;-78
2020/12/23 03:48:57;;;;;;;17.45;14.95;;;13.60;99.90;;;;;;2113525;28;20016;-79
2020/12/23 03:49:58;;;;;;;20.63;16.13;;;13.60;99.90;;;;;;2113401;28;20089;-77
2020/12/23 03:50:58;;;;;;;18.73;15.02;;;13.60;99.90;;;;;;2121714;27;20447;-78
2020/12/23 03:51:59;;;;;;;18.98;15.35;;;13.60;99.90;;;;;;2122440;27;20019;-80
2020/12/23 03:53:00;;;;;;;18.15;15.50;;;13.60;99.90;;;;;;2121784;27;20027;-78
2020/12/23 03:54:00;;;;;;;19.15;14.23;;;13.60;99.90;;;;;;2122275;27;20061;-76
2020/12/23 03:55:01;;;;;;;18.10;14.68;;;13.70;99.90;;;;;;2122586;28;20383;-77
2020/12/23 03:56:02;;;;;;;18.95;15.23;;;13.70;99.90;;;;;;2122637;27;20023;-79
2020/12/23 03:57:02;;;;;;;20.75;15.63;;;13.60;99.90;;;;;;2113019;28;20024;-78
2020/12/23 03:58:03;;;;;;;22.98;16.27;;;13.70;99.90;;;;;;2104411;28;20086;-78
2020/12/23 03:59:03;;;;;;;22.17;15.65;;;13.70;99.90;;;;;;2105047;28;20063;-78
2020/12/23 04:00:11;;;;;;;19.55;15.60;;;13.70;99.90;;;;;;2113473;28;20028;-79
2020/12/23 04:01:11;;;;;;;18.40;14.88;;;13.70;99.90;;;;;;2122262;27;20027;-76
2020/12/23 04:02:12;;;;;;;19.58;14.77;;;13.70;99.90;;;;;;2112674;28;20051;-78
2020/12/23 04:03:12;;;;;;;21.50;15.95;;;13.70;99.90;;;;;;2112218;28;20023;-78
2020/12/23 04:04:13;;;;;;;26.02;15.98;;;13.70;99.90;;;;;;2112635;28;20510;-76
2020/12/23 04:05:14;;;;;;;20.40;16.23;;;13.70;99.90;;;;;;2112955;28;20020;-77
2020/12/23 04:06:14;;;;;;;22.00;16.08;;;13.70;99.90;;;;;;2112798;28;20026;-78
2020/12/23 04:07:15;;;;;;;19.25;15.45;;;13.70;99.90;;;;;;2112606;28;20023;-78
2020/12/23 04:08:15;;;;;;;22.50;15.85;;;13.70;99.90;;;;;;2121853;28;20015;-79
2020/12/23 04:09:16;;;;;;;18.45;15.65;;;13.70;99.90;;;;;;2121953;28;20384;-78
2020/12/23 04:10:17;;;;;;;21.90;16.10;;;13.70;99.90;;;;;;2112442;28;20670;-78
2020/12/23 04:11:17;;;;;;;18.70;15.20;;;13.70;99.90;;;;;;2111830;28;20032;-79
2020/12/23 04:12:18;;;;;;;21.20;15.48;;;13.70;99.90;;;;;;2112427;28;20035;-79
2020/12/23 04:13:19;;;;;;;24.45;15.80;;;13.70;99.90;;;;;;2112351;28;20085;-76
2020/12/23 04:14:20;;;;;;;18.75;15.35;;;13.70;99.90;;;;;;2112693;28;20126;-78
2020/12/23 04:15:20;;;;;;;20.05;15.93;;;13.70;99.90;;;;;;2112490;28;20589;-76
2020/12/23 04:16:21;;;;;;;18.20;15.15;;;13.70;99.90;;;;;;2112398;28;20028;-78
2020/12/23 04:17:22;;;;;;;21.52;16.00;;;13.70;99.90;;;;;;2112372;28;20518;-77
2020/12/23 04:18:22;;;;;;;20.05;15.07;;;13.70;99.90;;;;;;2121204;28;20440;-79
2020/12/23 04:19:23;;;;;;;18.08;15.70;;;13.70;99.90;;;;;;2121327;28;20063;-77
2020/12/23 04:20:24;;;;;;;21.65;17.05;;;13.70;99.90;;;;;;2121470;28;20035;-78
2020/12/23 04:21:24;;;;;;;21.63;15.68;;;13.70;99.90;;;;;;2121620;28;20587;-78
2020/12/23 04:22:28;;;;;;;19.20;15.55;;;13.70;99.90;;;;;;2121611;28;20030;-78
2020/12/23 04:23:29;;;;;;;21.45;16.45;;;13.70;99.90;;;;;;2121253;28;20035;-78
2020/12/23 04:24:29;;;;;;;21.77;16.77;;;13.70;99.90;;;;;;2121663;28;20023;-78
2020/12/23 04:25:30;;;;;;;23.52;16.60;;;13.70;99.90;;;;;;2121369;28;20034;-77
2020/12/23 04:26:30;;;;;;;20.52;17.13;;;13.70;99.90;;;;;;2121651;28;20022;-79
2020/12/23 04:27:31;;;;;;;19.95;15.68;;;13.70;99.90;;;;;;2121264;28;20449;-78
2020/12/23 04:28:32;;;;;;;21.27;17.20;;;13.70;99.90;;;;;;2121636;28;20047;-79
2020/12/23 04:29:33;;;;;;;19.90;16.65;;;13.70;99.90;;;;;;2112209;28;20059;-79
2020/12/23 04:30:33;;;;;;;22.50;18.40;;;13.70;99.90;;;;;;2112199;28;20618;-78
2020/12/23 04:31:34;;;;;;;20.98;17.77;;;13.70;99.90;;;;;;2121585;28;20506;-78
2020/12/23 04:32:35;;;;;;;23.25;18.77;;;13.70;99.90;;;;;;2121686;28;20120;-78
2020/12/23 04:33:35;;;;;;;20.85;17.40;;;13.70;99.90;;;;;;2120946;28;20038;-78
2020/12/23 04:34:36;;;;;;;25.67;17.83;;;13.70;99.90;;;;;;2121645;28;20459;-76
2020/12/23 04:35:37;;;;;;;24.80;17.73;;;13.70;99.90;;;;;;2121575;28;20500;-78
2020/12/23 04:36:38;;;;;;;19.73;17.63;;;13.70;99.90;;;;;;2121591;28;20030;-78
2020/12/23 04:37:38;;;;;;;22.45;17.70;;;13.70;99.90;;;;;;2121439;28;20016;-78
2020/12/23 04:38:39;;;;;;;20.33;17.23;;;13.70;99.90;;;;;;2121586;28;20024;-78
2020/12/23 04:39:40;;;;;;;24.10;18.45;;;13.70;99.90;;;;;;2121388;28;20066;-78
2020/12/23 04:40:40;;;;;;;20.90;17.08;;;13.70;99.90;;;;;;2121777;28;20823;-79
2020/12/23 04:41:41;;;;;;;23.40;18.15;;;13.70;99.90;;;;;;2112437;28;20460;-77
2020/12/23 04:42:42;;;;;;;22.08;18.17;;;13.70;99.90;;;;;;2112315;28;20019;-77
2020/12/23 04:43:43;;;;;;;24.40;18.50;;;13.70;99.90;;;;;;2120637;28;20023;-79
2020/12/23 04:44:44;;;;;;;22.77;17.90;;;13.80;99.90;;;;;;2121468;28;20019;-80
2020/12/23 04:45:45;;;;;;;23.13;18.80;;;13.80;99.90;;;;;;2121327;28;20411;-80
2020/12/23 04:46:48;;;;;;;23.45;17.77;;;13.80;99.90;;;;;;2121320;28;20098;-78
2020/12/23 04:47:50;;;;;;;20.92;17.83;;;13.70;99.90;;;;;;2121039;28;20015;-79
2020/12/23 04:48:56;;;;;;;22.65;17.73;;;13.70;99.90;;;;;;2121733;28;20023;-79
2020/12/23 04:49:57;;;;;;;21.40;18.23;;;13.80;99.90;;;;;;2121460;28;20375;-78
2020/12/23 04:51:03;;;;;;;21.90;19.58;;;13.80;99.90;;;;;;2121481;28;20098;-82
2020/12/23 04:52:08;;;;;;;23.42;18.60;;;13.80;99.90;;;;;;2121610;28;20022;-79
2020/12/23 04:53:09;;;;;;;23.92;18.85;;;13.80;99.90;;;;;;2121473;28;20076;-80
2020/12/23 04:54:10;;;;;;;22.35;17.77;;;13.80;99.90;;;;;;2121498;28;20031;-78
2020/12/23 04:55:10;;;;;;;23.25;18.63;;;13.80;99.90;;;;;;2112131;28;20107;-78
2020/12/23 04:56:12;;;;;;;21.05;17.90;;;13.80;99.90;;;;;;2103906;28;20027;-77
2020/12/23 04:57:17;;;;;;;27.25;19.50;;;13.80;99.90;;;;;;2103626;28;20032;-79
2020/12/23 04:58:18;;;;;;;22.02;17.52;;;13.80;99.90;;;;;;2113185;28;20019;-77
2020/12/23 04:59:19;;;;;;;24.83;18.25;;;13.80;99.90;;;;;;2112119;28;20029;-80
2020/12/23 05:00:19;;;;;;;20.10;17.60;;;13.80;99.90;;;;;;2103813;28;20518;-81
2020/12/23 05:01:20;;;;;;;21.23;17.80;;;13.80;99.90;;;;;;2112428;28;20061;-81
2020/12/23 05:02:21;;;;;;;21.73;18.88;;;13.80;99.90;;;;;;2103970;28;20032;-81
2020/12/23 05:03:21;;;;;;;24.30;17.92;;;13.80;99.90;;;;;;2103613;28;20059;-79
2020/12/23 05:04:24;;;;;;;19.90;17.75;;;13.80;99.90;;;;;;2112187;28;20024;-81
2020/12/23 05:05:25;;;;;;;23.60;18.40;;;13.80;99.90;;;;;;2104161;28;20031;-81
2020/12/23 05:06:26;;;;;;;22.63;19.38;;;13.80;99.90;;;;;;2112347;28;20047;-79
2020/12/23 05:07:27;;;;;;;23.67;19.30;;;13.80;99.90;;;;;;2112394;28;20049;-80
2020/12/23 05:08:27;;;;;;;24.17;20.38;;;13.80;99.90;;;;;;2121301;28;20023;-81
2020/12/23 05:09:28;;;;;;;24.83;19.38;;;13.80;99.90;;;;;;2121361;28;20082;-80
2020/12/23 05:10:29;;;;;;;21.25;17.48;;;13.80;99.90;;;;;;2121222;28;20197;-80